sensor_id;sensor_type;location;lat;lon;timestamp;P1;durP1;ratioP1;P2;durP2;ratioP2
4210;SDS011;2119;48.828;12.396;2023-04-21T00:00:32;29.60;;;16.98;;
4210;SDS011;2119;48.828;12.396;2023-04-21T00:05:33;19.70;;;13.60;;
4210;SDS011;2119;48.828;12.396;2023-04-21T00:10:34;19.10;;;14.10;;
4210;SDS011;2119;48.828;12.396;2023-04-21T00:15:34;25.80;;;16.40;;
4210;SDS011;2119;48.828;12.396;2023-04-21T00:20:35;23.10;;;14.35;;
4210;SDS011;2119;48.828;12.396;2023-04-21T00:25:35;21.17;;;15.20;;
4210;SDS011;2119;48.828;12.396;2023-04-21T00:30:36;31.38;;;18.20;;
4210;SDS011;2119;48.828;12.396;2023-04-21T00:35:37;29.57;;;17.40;;
4210;SDS011;2119;48.828;12.396;2023-04-21T00:40:37;27.73;;;17.27;;
4210;SDS011;2119;48.828;12.396;2023-04-21T00:45:37;23.65;;;16.20;;
4210;SDS011;2119;48.828;12.396;2023-04-21T00:50:38;33.83;;;17.17;;
4210;SDS011;2119;48.828;12.396;2023-04-21T00:55:39;37.97;;;19.50;;
4210;SDS011;2119;48.828;12.396;2023-04-21T01:00:39;86.30;;;32.17;;
4210;SDS011;2119;48.828;12.396;2023-04-21T01:05:40;36.63;;;21.30;;
4210;SDS011;2119;48.828;12.396;2023-04-21T01:10:41;21.67;;;14.83;;
4210;SDS011;2119;48.828;12.396;2023-04-21T01:15:41;19.20;;;14.70;;
4210;SDS011;2119;48.828;12.396;2023-04-21T01:20:42;19.77;;;13.90;;
4210;SDS011;2119;48.828;12.396;2023-04-21T01:25:45;22.30;;;14.83;;
4210;SDS011;2119;48.828;12.396;2023-04-21T01:30:46;22.27;;;15.20;;
4210;SDS011;2119;48.828;12.396;2023-04-21T01:35:46;27.15;;;14.57;;
4210;SDS011;2119;48.828;12.396;2023-04-21T01:40:47;19.92;;;14.05;;
4210;SDS011;2119;48.828;12.396;2023-04-21T01:45:47;25.30;;;15.73;;
4210;SDS011;2119;48.828;12.396;2023-04-21T01:50:48;22.13;;;15.30;;
4210;SDS011;2119;48.828;12.396;2023-04-21T01:55:49;25.35;;;14.98;;
4210;SDS011;2119;48.828;12.396;2023-04-21T02:00:49;20.60;;;14.93;;
4210;SDS011;2119;48.828;12.396;2023-04-21T02:05:49;23.53;;;15.00;;
4210;SDS011;2119;48.828;12.396;2023-04-21T02:10:50;19.50;;;13.40;;
4210;SDS011;2119;48.828;12.396;2023-04-21T02:15:51;17.85;;;13.80;;
4210;SDS011;2119;48.828;12.396;2023-04-21T02:20:51;19.87;;;14.80;;
4210;SDS011;2119;48.828;12.396;2023-04-21T02:25:51;21.67;;;15.07;;
4210;SDS011;2119;48.828;12.396;2023-04-21T02:30:52;21.90;;;14.97;;
4210;SDS011;2119;48.828;12.396;2023-04-21T02:35:52;20.30;;;15.47;;
4210;SDS011;2119;48.828;12.396;2023-04-21T02:40:52;20.15;;;13.57;;
4210;SDS011;2119;48.828;12.396;2023-04-21T02:45:52;18.48;;;14.05;;
4210;SDS011;2119;48.828;12.396;2023-04-21T02:50:53;19.60;;;13.67;;
4210;SDS011;2119;48.828;12.396;2023-04-21T02:55:53;19.83;;;14.15;;
4210;SDS011;2119;48.828;12.396;2023-04-21T03:00:53;19.83;;;13.68;;
4210;SDS011;2119;48.828;12.396;2023-04-21T03:05:57;21.60;;;14.63;;
4210;SDS011;2119;48.828;12.396;2023-04-21T03:10:57;20.93;;;14.90;;
4210;SDS011;2119;48.828;12.396;2023-04-21T03:15:57;22.37;;;14.17;;
4210;SDS011;2119;48.828;12.396;2023-04-21T03:20:58;17.27;;;12.45;;
4210;SDS011;2119;48.828;12.396;2023-04-21T03:25:58;19.03;;;13.50;;
4210;SDS011;2119;48.828;12.396;2023-04-21T03:30:58;16.43;;;12.63;;
4210;SDS011;2119;48.828;12.396;2023-04-21T03:35:58;19.97;;;12.87;;
4210;SDS011;2119;48.828;12.396;2023-04-21T03:40:59;16.23;;;11.80;;
4210;SDS011;2119;48.828;12.396;2023-04-21T03:45:59;19.63;;;11.90;;
4210;SDS011;2119;48.828;12.396;2023-04-21T03:50:59;16.70;;;12.15;;
4210;SDS011;2119;48.828;12.396;2023-04-21T03:55:59;24.58;;;16.05;;
4210;SDS011;2119;48.828;12.396;2023-04-21T04:01:00;30.13;;;18.40;;
4210;SDS011;2119;48.828;12.396;2023-04-21T04:06:00;13.13;;;9.87;;
4210;SDS011;2119;48.828;12.396;2023-04-21T04:11:02;14.50;;;12.57;;
4210;SDS011;2119;48.828;12.396;2023-04-21T04:16:03;14.73;;;11.87;;
4210;SDS011;2119;48.828;12.396;2023-04-21T04:21:07;16.50;;;11.17;;
4210;SDS011;2119;48.828;12.396;2023-04-21T04:26:07;11.77;;;9.53;;
4210;SDS011;2119;48.828;12.396;2023-04-21T04:31:08;13.33;;;11.00;;
4210;SDS011;2119;48.828;12.396;2023-04-21T04:36:09;12.13;;;10.03;;
4210;SDS011;2119;48.828;12.396;2023-04-21T04:41:10;14.70;;;10.57;;
4210;SDS011;2119;48.828;12.396;2023-04-21T04:46:11;14.20;;;10.50;;
4210;SDS011;2119;48.828;12.396;2023-04-21T04:51:12;14.40;;;10.20;;
4210;SDS011;2119;48.828;12.396;2023-04-21T04:56:12;13.63;;;9.60;;
4210;SDS011;2119;48.828;12.396;2023-04-21T05:01:14;14.00;;;10.52;;
4210;SDS011;2119;48.828;12.396;2023-04-21T05:06:14;12.83;;;10.83;;
4210;SDS011;2119;48.828;12.396;2023-04-21T05:11:15;21.90;;;14.33;;
4210;SDS011;2119;48.828;12.396;2023-04-21T05:16:17;17.40;;;13.82;;
4210;SDS011;2119;48.828;12.396;2023-04-21T05:21:21;20.53;;;12.90;;
4210;SDS011;2119;48.828;12.396;2023-04-21T05:26:22;14.17;;;10.60;;
4210;SDS011;2119;48.828;12.396;2023-04-21T05:31:22;14.63;;;11.40;;
4210;SDS011;2119;48.828;12.396;2023-04-21T05:36:23;16.00;;;11.13;;
4210;SDS011;2119;48.828;12.396;2023-04-21T05:41:23;18.87;;;12.57;;
4210;SDS011;2119;48.828;12.396;2023-04-21T05:46:24;16.00;;;12.30;;
4210;SDS011;2119;48.828;12.396;2023-04-21T05:51:24;20.23;;;13.53;;
4210;SDS011;2119;48.828;12.396;2023-04-21T05:56:26;19.63;;;13.43;;
4210;SDS011;2119;48.828;12.396;2023-04-21T06:01:26;17.75;;;13.07;;
4210;SDS011;2119;48.828;12.396;2023-04-21T06:06:26;16.60;;;12.20;;
4210;SDS011;2119;48.828;12.396;2023-04-21T06:11:27;17.70;;;12.30;;
4210;SDS011;2119;48.828;12.396;2023-04-21T06:16:27;17.50;;;11.90;;
4210;SDS011;2119;48.828;12.396;2023-04-21T06:21:28;17.77;;;13.00;;
4210;SDS011;2119;48.828;12.396;2023-04-21T06:26:28;22.23;;;14.00;;
4210;SDS011;2119;48.828;12.396;2023-04-21T06:31:30;22.47;;;15.90;;
4210;SDS011;2119;48.828;12.396;2023-04-21T06:36:30;20.77;;;15.10;;
4210;SDS011;2119;48.828;12.396;2023-04-21T06:41:32;20.33;;;14.67;;
4210;SDS011;2119;48.828;12.396;2023-04-21T06:46:32;21.48;;;14.88;;
4210;SDS011;2119;48.828;12.396;2023-04-21T06:51:32;20.30;;;14.07;;
4210;SDS011;2119;48.828;12.396;2023-04-21T06:56:34;22.17;;;15.60;;
4210;SDS011;2119;48.828;12.396;2023-04-21T07:01:34;19.73;;;14.87;;
4210;SDS011;2119;48.828;12.396;2023-04-21T07:06:34;19.20;;;14.67;;
4210;SDS011;2119;48.828;12.396;2023-04-21T07:11:35;16.70;;;13.20;;
4210;SDS011;2119;48.828;12.396;2023-04-21T07:16:36;19.13;;;14.07;;
4210;SDS011;2119;48.828;12.396;2023-04-21T07:21:50;18.17;;;12.93;;
4210;SDS011;2119;48.828;12.396;2023-04-21T07:26:52;18.23;;;14.67;;
4210;SDS011;2119;48.828;12.396;2023-04-21T07:31:55;19.23;;;13.30;;
4210;SDS011;2119;48.828;12.396;2023-04-21T07:36:57;20.17;;;13.90;;
4210;SDS011;2119;48.828;12.396;2023-04-21T07:41:58;15.30;;;12.13;;
4210;SDS011;2119;48.828;12.396;2023-04-21T07:46:58;15.50;;;12.17;;
4210;SDS011;2119;48.828;12.396;2023-04-21T07:51:59;13.30;;;11.90;;
4210;SDS011;2119;48.828;12.396;2023-04-21T07:57:02;12.88;;;11.40;;
4210;SDS011;2119;48.828;12.396;2023-04-21T08:02:03;14.87;;;11.77;;
4210;SDS011;2119;48.828;12.396;2023-04-21T08:07:04;12.40;;;10.27;;
4210;SDS011;2119;48.828;12.396;2023-04-21T08:12:04;11.83;;;10.10;;
4210;SDS011;2119;48.828;12.396;2023-04-21T08:17:05;11.57;;;9.95;;
4210;SDS011;2119;48.828;12.396;2023-04-21T08:22:08;14.10;;;10.57;;
4210;SDS011;2119;48.828;12.396;2023-04-21T08:27:08;17.13;;;14.13;;
4210;SDS011;2119;48.828;12.396;2023-04-21T08:32:09;14.73;;;11.60;;
4210;SDS011;2119;48.828;12.396;2023-04-21T08:37:09;12.40;;;9.90;;
4210;SDS011;2119;48.828;12.396;2023-04-21T08:42:09;14.45;;;10.93;;
4210;SDS011;2119;48.828;12.396;2023-04-21T08:47:11;6.13;;;5.63;;
4210;SDS011;2119;48.828;12.396;2023-04-21T08:52:11;7.90;;;7.20;;
4210;SDS011;2119;48.828;12.396;2023-04-21T08:57:12;9.17;;;8.27;;
4210;SDS011;2119;48.828;12.396;2023-04-21T09:02:15;14.90;;;12.13;;
4210;SDS011;2119;48.828;12.396;2023-04-21T09:12:37;7.37;;;6.13;;
4210;SDS011;2119;48.828;12.396;2023-04-21T09:17:39;28.60;;;18.87;;
4210;SDS011;2119;48.828;12.396;2023-04-21T09:22:42;6.20;;;5.80;;
4210;SDS011;2119;48.828;12.396;2023-04-21T09:27:42;6.00;;;5.60;;
4210;SDS011;2119;48.828;12.396;2023-04-21T09:32:42;6.40;;;5.80;;
4210;SDS011;2119;48.828;12.396;2023-04-21T09:37:43;5.78;;;5.35;;
4210;SDS011;2119;48.828;12.396;2023-04-21T09:42:43;4.67;;;4.27;;
4210;SDS011;2119;48.828;12.396;2023-04-21T09:47:44;4.97;;;4.67;;
4210;SDS011;2119;48.828;12.396;2023-04-21T09:52:49;5.77;;;5.17;;
4210;SDS011;2119;48.828;12.396;2023-04-21T09:57:55;5.03;;;4.63;;
4210;SDS011;2119;48.828;12.396;2023-04-21T10:03:02;6.30;;;5.67;;
4210;SDS011;2119;48.828;12.396;2023-04-21T10:08:03;6.03;;;5.40;;
4210;SDS011;2119;48.828;12.396;2023-04-21T10:13:06;5.87;;;4.77;;
4210;SDS011;2119;48.828;12.396;2023-04-21T10:18:22;5.30;;;4.90;;
4210;SDS011;2119;48.828;12.396;2023-04-21T10:23:29;5.03;;;4.53;;
4210;SDS011;2119;48.828;12.396;2023-04-21T10:28:39;5.23;;;4.83;;
4210;SDS011;2119;48.828;12.396;2023-04-21T10:33:40;11.33;;;5.87;;
4210;SDS011;2119;48.828;12.396;2023-04-21T10:38:41;4.87;;;4.57;;
4210;SDS011;2119;48.828;12.396;2023-04-21T10:43:42;5.50;;;5.00;;
4210;SDS011;2119;48.828;12.396;2023-04-21T10:48:50;4.93;;;4.53;;
4210;SDS011;2119;48.828;12.396;2023-04-21T10:53:50;6.00;;;4.60;;
4210;SDS011;2119;48.828;12.396;2023-04-21T10:58:51;5.17;;;4.87;;
4210;SDS011;2119;48.828;12.396;2023-04-21T11:03:51;5.53;;;5.13;;
4210;SDS011;2119;48.828;12.396;2023-04-21T11:08:54;4.90;;;4.60;;
4210;SDS011;2119;48.828;12.396;2023-04-21T11:13:55;4.73;;;4.33;;
4210;SDS011;2119;48.828;12.396;2023-04-21T11:18:58;5.47;;;5.07;;
4210;SDS011;2119;48.828;12.396;2023-04-21T11:23:58;7.10;;;5.37;;
4210;SDS011;2119;48.828;12.396;2023-04-21T11:29:00;4.57;;;4.27;;
4210;SDS011;2119;48.828;12.396;2023-04-21T11:34:02;4.83;;;4.50;;
4210;SDS011;2119;48.828;12.396;2023-04-21T11:39:06;5.00;;;4.30;;
4210;SDS011;2119;48.828;12.396;2023-04-21T11:44:12;3.83;;;3.60;;
4210;SDS011;2119;48.828;12.396;2023-04-21T11:49:14;3.17;;;2.97;;
4210;SDS011;2119;48.828;12.396;2023-04-21T11:54:16;4.37;;;4.07;;
4210;SDS011;2119;48.828;12.396;2023-04-21T11:59:17;3.47;;;3.20;;
4210;SDS011;2119;48.828;12.396;2023-04-21T12:04:22;3.27;;;3.07;;
4210;SDS011;2119;48.828;12.396;2023-04-21T12:09:23;4.40;;;4.10;;
4210;SDS011;2119;48.828;12.396;2023-04-21T12:14:24;4.50;;;4.20;;
4210;SDS011;2119;48.828;12.396;2023-04-21T12:19:36;3.50;;;3.20;;
4210;SDS011;2119;48.828;12.396;2023-04-21T12:24:36;3.60;;;3.40;;
4210;SDS011;2119;48.828;12.396;2023-04-21T12:29:37;3.43;;;3.23;;
4210;SDS011;2119;48.828;12.396;2023-04-21T12:34:38;3.70;;;3.50;;
4210;SDS011;2119;48.828;12.396;2023-04-21T12:39:38;3.78;;;3.55;;
4210;SDS011;2119;48.828;12.396;2023-04-21T12:44:38;3.55;;;3.35;;
4210;SDS011;2119;48.828;12.396;2023-04-21T12:49:40;3.60;;;3.40;;
4210;SDS011;2119;48.828;12.396;2023-04-21T12:54:41;4.07;;;3.67;;
4210;SDS011;2119;48.828;12.396;2023-04-21T12:59:41;3.80;;;3.60;;
4210;SDS011;2119;48.828;12.396;2023-04-21T13:04:42;4.13;;;3.83;;
4210;SDS011;2119;48.828;12.396;2023-04-21T13:09:42;3.77;;;3.57;;
4210;SDS011;2119;48.828;12.396;2023-04-21T13:14:42;3.90;;;3.60;;
4210;SDS011;2119;48.828;12.396;2023-04-21T13:19:43;2.83;;;2.50;;
4210;SDS011;2119;48.828;12.396;2023-04-21T13:24:43;2.70;;;2.50;;
4210;SDS011;2119;48.828;12.396;2023-04-21T13:29:43;3.13;;;2.83;;
4210;SDS011;2119;48.828;12.396;2023-04-21T13:34:44;2.97;;;2.77;;
4210;SDS011;2119;48.828;12.396;2023-04-21T13:39:44;3.20;;;3.00;;
4210;SDS011;2119;48.828;12.396;2023-04-21T13:44:45;2.60;;;2.40;;
4210;SDS011;2119;48.828;12.396;2023-04-21T13:49:46;2.90;;;2.70;;
4210;SDS011;2119;48.828;12.396;2023-04-21T13:54:46;2.77;;;2.57;;
4210;SDS011;2119;48.828;12.396;2023-04-21T13:59:46;2.72;;;2.53;;
4210;SDS011;2119;48.828;12.396;2023-04-21T14:04:47;2.70;;;2.50;;
4210;SDS011;2119;48.828;12.396;2023-04-21T14:09:48;3.40;;;2.57;;
4210;SDS011;2119;48.828;12.396;2023-04-21T14:14:48;2.50;;;2.30;;
4210;SDS011;2119;48.828;12.396;2023-04-21T14:19:48;2.60;;;2.40;;
4210;SDS011;2119;48.828;12.396;2023-04-21T14:24:49;2.90;;;2.70;;
4210;SDS011;2119;48.828;12.396;2023-04-21T14:29:49;3.20;;;3.00;;
4210;SDS011;2119;48.828;12.396;2023-04-21T14:34:51;3.03;;;2.83;;
4210;SDS011;2119;48.828;12.396;2023-04-21T14:39:57;2.73;;;2.53;;
4210;SDS011;2119;48.828;12.396;2023-04-21T14:44:57;2.78;;;2.50;;
4210;SDS011;2119;48.828;12.396;2023-04-21T14:49:57;2.77;;;2.57;;
4210;SDS011;2119;48.828;12.396;2023-04-21T14:54:58;2.93;;;2.60;;
4210;SDS011;2119;48.828;12.396;2023-04-21T14:59:59;2.90;;;2.70;;
4210;SDS011;2119;48.828;12.396;2023-04-21T15:04:59;3.27;;;3.07;;
4210;SDS011;2119;48.828;12.396;2023-04-21T15:10:00;4.67;;;3.30;;
4210;SDS011;2119;48.828;12.396;2023-04-21T15:15:00;3.20;;;2.87;;
4210;SDS011;2119;48.828;12.396;2023-04-21T15:20:00;3.47;;;3.17;;
4210;SDS011;2119;48.828;12.396;2023-04-21T15:25:01;3.23;;;3.03;;
4210;SDS011;2119;48.828;12.396;2023-04-21T15:30:01;3.07;;;2.87;;
4210;SDS011;2119;48.828;12.396;2023-04-21T15:35:03;3.20;;;2.80;;
4210;SDS011;2119;48.828;12.396;2023-04-21T15:40:04;3.37;;;3.17;;
4210;SDS011;2119;48.828;12.396;2023-04-21T15:45:04;3.20;;;3.00;;
4210;SDS011;2119;48.828;12.396;2023-04-21T15:50:05;3.50;;;3.20;;
4210;SDS011;2119;48.828;12.396;2023-04-21T15:55:05;3.20;;;3.00;;
4210;SDS011;2119;48.828;12.396;2023-04-21T16:00:08;3.00;;;2.80;;
4210;SDS011;2119;48.828;12.396;2023-04-21T16:05:09;3.27;;;3.07;;
4210;SDS011;2119;48.828;12.396;2023-04-21T16:10:09;4.50;;;4.10;;
4210;SDS011;2119;48.828;12.396;2023-04-21T16:15:10;2.90;;;2.70;;
4210;SDS011;2119;48.828;12.396;2023-04-21T16:20:11;2.93;;;2.73;;
4210;SDS011;2119;48.828;12.396;2023-04-21T16:25:11;3.47;;;2.63;;
4210;SDS011;2119;48.828;12.396;2023-04-21T16:30:13;3.63;;;2.97;;
4210;SDS011;2119;48.828;12.396;2023-04-21T16:35:13;3.60;;;3.40;;
4210;SDS011;2119;48.828;12.396;2023-04-21T16:40:13;2.70;;;2.50;;
4210;SDS011;2119;48.828;12.396;2023-04-21T16:45:13;3.10;;;2.90;;
4210;SDS011;2119;48.828;12.396;2023-04-21T16:50:14;2.97;;;2.77;;
4210;SDS011;2119;48.828;12.396;2023-04-21T16:55:14;2.90;;;2.67;;
4210;SDS011;2119;48.828;12.396;2023-04-21T17:00:15;3.17;;;2.97;;
4210;SDS011;2119;48.828;12.396;2023-04-21T17:05:15;3.30;;;3.10;;
4210;SDS011;2119;48.828;12.396;2023-04-21T17:10:21;2.50;;;2.40;;
4210;SDS011;2119;48.828;12.396;2023-04-21T17:15:23;3.00;;;2.80;;
4210;SDS011;2119;48.828;12.396;2023-04-21T17:20:25;2.80;;;2.57;;
4210;SDS011;2119;48.828;12.396;2023-04-21T17:25:26;3.10;;;2.90;;
4210;SDS011;2119;48.828;12.396;2023-04-21T17:30:26;3.00;;;2.80;;
4210;SDS011;2119;48.828;12.396;2023-04-21T17:35:26;2.50;;;2.30;;
4210;SDS011;2119;48.828;12.396;2023-04-21T17:40:26;2.80;;;2.60;;
4210;SDS011;2119;48.828;12.396;2023-04-21T17:45:27;3.43;;;3.23;;
4210;SDS011;2119;48.828;12.396;2023-04-21T17:50:27;3.67;;;3.37;;
4210;SDS011;2119;48.828;12.396;2023-04-21T17:55:27;3.80;;;3.60;;
4210;SDS011;2119;48.828;12.396;2023-04-21T18:00:27;4.57;;;4.13;;
4210;SDS011;2119;48.828;12.396;2023-04-21T18:05:33;5.63;;;4.20;;
4210;SDS011;2119;48.828;12.396;2023-04-21T18:10:34;3.60;;;3.40;;
4210;SDS011;2119;48.828;12.396;2023-04-21T18:15:35;4.80;;;3.87;;
4210;SDS011;2119;48.828;12.396;2023-04-21T18:20:35;4.10;;;3.80;;
4210;SDS011;2119;48.828;12.396;2023-04-21T18:25:35;9.15;;;8.25;;
4210;SDS011;2119;48.828;12.396;2023-04-21T18:30:35;10.97;;;9.80;;
4210;SDS011;2119;48.828;12.396;2023-04-21T18:35:36;9.85;;;9.05;;
4210;SDS011;2119;48.828;12.396;2023-04-21T18:40:36;6.60;;;6.10;;
4210;SDS011;2119;48.828;12.396;2023-04-21T18:45:36;4.47;;;4.07;;
4210;SDS011;2119;48.828;12.396;2023-04-21T18:50:37;5.83;;;5.20;;
4210;SDS011;2119;48.828;12.396;2023-04-21T18:55:39;6.13;;;5.67;;
4210;SDS011;2119;48.828;12.396;2023-04-21T19:00:39;5.40;;;4.90;;
4210;SDS011;2119;48.828;12.396;2023-04-21T19:05:39;7.18;;;6.47;;
4210;SDS011;2119;48.828;12.396;2023-04-21T19:10:39;8.03;;;7.37;;
4210;SDS011;2119;48.828;12.396;2023-04-21T19:15:40;4.20;;;3.90;;
4210;SDS011;2119;48.828;12.396;2023-04-21T19:20:40;5.10;;;4.80;;
4210;SDS011;2119;48.828;12.396;2023-04-21T19:25:40;3.97;;;3.77;;
4210;SDS011;2119;48.828;12.396;2023-04-21T19:30:41;3.50;;;3.30;;
4210;SDS011;2119;48.828;12.396;2023-04-21T19:35:41;3.75;;;3.45;;
4210;SDS011;2119;48.828;12.396;2023-04-21T19:40:41;3.83;;;3.63;;
4210;SDS011;2119;48.828;12.396;2023-04-21T19:45:43;3.27;;;3.07;;
4210;SDS011;2119;48.828;12.396;2023-04-21T19:50:46;4.33;;;3.93;;
4210;SDS011;2119;48.828;12.396;2023-04-21T19:55:48;4.43;;;4.13;;
4210;SDS011;2119;48.828;12.396;2023-04-21T20:00:49;4.27;;;4.00;;
4210;SDS011;2119;48.828;12.396;2023-04-21T20:05:50;4.50;;;4.20;;
4210;SDS011;2119;48.828;12.396;2023-04-21T20:10:50;5.60;;;5.20;;
4210;SDS011;2119;48.828;12.396;2023-04-21T20:15:51;7.32;;;6.60;;
4210;SDS011;2119;48.828;12.396;2023-04-21T20:20:52;6.73;;;6.07;;
4210;SDS011;2119;48.828;12.396;2023-04-21T20:25:52;6.07;;;5.50;;
4210;SDS011;2119;48.828;12.396;2023-04-21T20:30:52;6.60;;;6.00;;
4210;SDS011;2119;48.828;12.396;2023-04-21T20:35:55;8.90;;;5.73;;
4210;SDS011;2119;48.828;12.396;2023-04-21T20:40:55;9.53;;;5.57;;
4210;SDS011;2119;48.828;12.396;2023-04-21T20:45:56;9.43;;;5.03;;
4210;SDS011;2119;48.828;12.396;2023-04-21T20:50:57;5.53;;;5.03;;
4210;SDS011;2119;48.828;12.396;2023-04-21T20:55:59;6.00;;;5.50;;
4210;SDS011;2119;48.828;12.396;2023-04-21T21:01:00;7.20;;;6.03;;
4210;SDS011;2119;48.828;12.396;2023-04-21T21:06:00;6.53;;;5.77;;
4210;SDS011;2119;48.828;12.396;2023-04-21T21:11:00;6.55;;;5.80;;
4210;SDS011;2119;48.828;12.396;2023-04-21T21:16:01;9.17;;;6.33;;
4210;SDS011;2119;48.828;12.396;2023-04-21T21:21:01;6.25;;;5.65;;
4210;SDS011;2119;48.828;12.396;2023-04-21T21:26:02;6.07;;;5.55;;
4210;SDS011;2119;48.828;12.396;2023-04-21T21:31:02;6.60;;;5.90;;
4210;SDS011;2119;48.828;12.396;2023-04-21T21:36:02;6.20;;;5.60;;
4210;SDS011;2119;48.828;12.396;2023-04-21T21:41:03;6.33;;;5.73;;
4210;SDS011;2119;48.828;12.396;2023-04-21T21:46:07;7.50;;;6.27;;
4210;SDS011;2119;48.828;12.396;2023-04-21T21:51:07;8.53;;;7.37;;
4210;SDS011;2119;48.828;12.396;2023-04-21T21:56:07;9.47;;;8.27;;
4210;SDS011;2119;48.828;12.396;2023-04-21T22:01:07;8.70;;;7.70;;
4210;SDS011;2119;48.828;12.396;2023-04-21T22:06:08;8.00;;;6.28;;
4210;SDS011;2119;48.828;12.396;2023-04-21T22:11:08;6.03;;;5.53;;
4210;SDS011;2119;48.828;12.396;2023-04-21T22:16:08;9.63;;;5.93;;
4210;SDS011;2119;48.828;12.396;2023-04-21T22:21:09;5.80;;;5.23;;
4210;SDS011;2119;48.828;12.396;2023-04-21T22:26:10;5.50;;;4.97;;
4210;SDS011;2119;48.828;12.396;2023-04-21T22:31:10;5.50;;;5.10;;
4210;SDS011;2119;48.828;12.396;2023-04-21T22:36:11;12.17;;;5.73;;
4210;SDS011;2119;48.828;12.396;2023-04-21T22:41:12;9.50;;;6.17;;
4210;SDS011;2119;48.828;12.396;2023-04-21T22:46:12;8.60;;;5.10;;
4210;SDS011;2119;48.828;12.396;2023-04-21T22:51:13;6.35;;;5.85;;
4210;SDS011;2119;48.828;12.396;2023-04-21T22:56:20;6.63;;;5.80;;
4210;SDS011;2119;48.828;12.396;2023-04-21T23:01:21;8.40;;;7.60;;
4210;SDS011;2119;48.828;12.396;2023-04-21T23:06:27;7.43;;;6.73;;
4210;SDS011;2119;48.828;12.396;2023-04-21T23:11:27;6.63;;;6.07;;
4210;SDS011;2119;48.828;12.396;2023-04-21T23:16:28;9.93;;;6.13;;
4210;SDS011;2119;48.828;12.396;2023-04-21T23:21:30;6.03;;;5.50;;
4210;SDS011;2119;48.828;12.396;2023-04-21T23:26:31;6.87;;;5.83;;
4210;SDS011;2119;48.828;12.396;2023-04-21T23:31:31;6.83;;;6.23;;
4210;SDS011;2119;48.828;12.396;2023-04-21T23:36:32;6.78;;;6.10;;
4210;SDS011;2119;48.828;12.396;2023-04-21T23:41:32;10.00;;;9.00;;
4210;SDS011;2119;48.828;12.396;2023-04-21T23:46:32;11.80;;;9.13;;
4210;SDS011;2119;48.828;12.396;2023-04-21T23:51:32;12.83;;;7.67;;
4210;SDS011;2119;48.828;12.396;2023-04-21T23:56:32;9.17;;;7.00;;
